Time;durP1;ratioP1;P1;durP2;ratioP2;P2;SDS_P1;SDS_P2;PMS_P1;PMS_P2;Temp;Humidity;BMP_temperature;BMP_pressure;BME280_temperature;BME280_humidity;BME280_pressure;Samples;Min_cycle;Max_cycle;Signal;HPM_P1;HPM_P2
2023/01/31 00:01:35;;;;;;;16.25;4.07;;;;;;;5.83;78.25;102055.47;6091370;23;20529;-70
2023/01/31 00:04:06;;;;;;;22.13;3.58;;;;;;;5.85;78.01;102053.81;6091115;23;20453;-70
2023/01/31 00:06:37;;;;;;;20.08;3.80;;;;;;;5.84;78.47;102053.78;6091026;23;20023;-70
2023/01/31 00:09:04;;;;;;;16.73;4.90;;;;;;;5.86;77.87;102059.84;6090726;23;20197;-70
2023/01/31 00:11:30;;;;;;;34.13;7.30;;;;;;;5.84;78.48;102059.81;6091411;23;20025;-70
2023/01/31 00:13:58;;;;;;;24.08;4.50;;;;;;;5.85;78.20;102063.22;6090756;23;20034;-70
2023/01/31 00:16:24;;;;;;;19.50;4.03;;;;;;;5.86;78.15;102064.97;6090703;23;20006;-70
2023/01/31 00:18:49;;;;;;;17.42;3.90;;;;;;;5.85;78.43;102058.06;6090196;23;20020;-70
2023/01/31 00:21:18;;;;;;;19.60;4.22;;;;;;;5.84;78.13;102062.38;6089418;23;20101;-70
2023/01/31 00:23:44;;;;;;;17.20;3.92;;;;;;;5.83;78.44;102067.44;6090203;23;20033;-70
2023/01/31 00:26:14;;;;;;;18.25;3.53;;;;;;;5.79;78.74;102069.91;6089875;23;20029;-70
2023/01/31 00:28:41;;;;;;;16.42;3.65;;;;;;;5.81;78.49;102072.53;6089305;23;20077;-71
2023/01/31 00:31:07;;;;;;;34.08;5.30;;;;;;;5.81;78.18;102069.09;6091010;23;20443;-70
2023/01/31 00:33:33;;;;;;;21.60;4.15;;;;;;;5.83;78.23;102070.00;6089586;23;20078;-69
2023/01/31 00:36:02;;;;;;;21.08;3.65;;;;;;;5.79;77.89;102066.47;6090565;23;20029;-70
2023/01/31 00:38:28;;;;;;;30.15;4.35;;;;;;;5.72;78.25;102074.81;6090680;23;20025;-69
2023/01/31 00:40:53;;;;;;;16.58;3.22;;;;;;;5.66;78.65;102080.59;6088904;23;20647;-71
2023/01/31 00:43:19;;;;;;;13.05;3.80;;;;;;;5.59;79.44;102076.09;6090440;23;20022;-71
2023/01/31 00:45:45;;;;;;;23.48;3.88;;;;;;;5.51;79.18;102069.84;6092025;23;20506;-70
2023/01/31 00:48:10;;;;;;;21.30;4.57;;;;;;;5.51;79.50;102071.53;6089885;23;20513;-70
2023/01/31 00:50:36;;;;;;;22.00;3.55;;;;;;;5.51;79.45;102064.72;6090429;23;20779;-71
2023/01/31 00:53:02;;;;;;;18.25;3.63;;;;;;;5.50;79.32;102065.53;6089458;23;20022;-70
2023/01/31 00:55:27;;;;;;;27.52;4.07;;;;;;;5.52;78.92;102063.88;6090240;23;20002;-71
2023/01/31 00:57:53;;;;;;;15.18;3.63;;;;;;;5.54;79.26;102069.06;6090254;23;20013;-70
2023/01/31 01:00:18;;;;;;;16.67;3.72;;;;;;;5.54;79.78;102069.94;6090794;23;20529;-70
2023/01/31 01:02:44;;;;;;;15.65;3.65;;;;;;;5.56;79.71;102059.72;6089362;23;20199;-70
2023/01/31 01:05:09;;;;;;;14.15;3.38;;;;;;;5.55;79.36;102060.53;6090997;23;20085;-70
2023/01/31 01:07:35;;;;;;;22.55;4.30;;;;;;;5.54;79.85;102066.50;6089937;23;20018;-71
2023/01/31 01:10:01;;;;;;;15.05;3.10;;;;;;;5.53;79.46;102067.31;6091618;23;20007;-70
2023/01/31 01:12:26;;;;;;;19.92;2.92;;;;;;;5.50;79.28;102080.91;6091996;23;20025;-70
2023/01/31 01:14:51;;;;;;;19.23;3.88;;;;;;;5.47;79.48;102077.38;6090003;23;20018;-70
2023/01/31 01:17:17;;;;;;;18.80;3.58;;;;;;;5.42;79.46;102084.94;6088672;23;20029;-70
2023/01/31 01:19:42;;;;;;;20.63;3.63;;;;;;;5.34;79.65;102082.94;6090107;23;20022;-70
2023/01/31 01:22:08;;;;;;;25.60;3.40;;;;;;;5.27;79.68;102083.53;6089411;23;20007;-70
2023/01/31 01:24:33;;;;;;;19.50;3.67;;;;;;;5.20;80.18;102079.88;6089389;23;20121;-70
2023/01/31 01:26:58;;;;;;;20.83;3.05;;;;;;;5.26;79.87;102074.97;6089967;23;20022;-70
2023/01/31 01:29:24;;;;;;;19.02;3.60;;;;;;;5.31;79.42;102078.53;6089246;23;20014;-70
2023/01/31 01:31:49;;;;;;;14.80;3.45;;;;;;;5.35;79.11;102071.84;6090407;23;20093;-70
2023/01/31 01:34:16;;;;;;;26.90;5.30;;;;;;;5.35;79.10;102080.41;6090608;23;20481;-71
2023/01/31 01:36:42;;;;;;;19.38;3.50;;;;;;;5.37;79.25;102071.06;6091736;23;20024;-70
2023/01/31 01:39:10;;;;;;;22.25;3.90;;;;;;;5.40;78.57;102066.03;6090812;23;20083;-70
2023/01/31 01:41:37;;;;;;;16.92;2.97;;;;;;;5.37;79.15;102068.50;6093142;23;20462;-70
2023/01/31 01:44:43;;;;;;;12.88;2.90;;;;;;;5.37;78.44;102077.91;6093814;23;20018;-70
2023/01/31 01:47:35;;;;;;;27.27;2.88;;;;;;;5.34;78.93;102070.13;6068403;23;20033;-71
2023/01/31 01:50:14;;;;;;;17.90;3.75;;;;;;;5.33;78.68;102074.38;6090182;23;20331;-71
2023/01/31 01:52:50;;;;;;;17.30;3.17;;;;;;;5.33;79.23;102070.94;6090123;23;20022;-70
2023/01/31 01:55:34;;;;;;;24.73;4.57;;;;;;;5.29;78.89;102069.06;6091058;23;20474;-71
2023/01/31 01:58:06;;;;;;;16.48;3.58;;;;;;;5.27;78.70;102073.28;6088895;23;20454;-71
2023/01/31 02:00:34;;;;;;;17.25;4.32;;;;;;;5.26;78.71;102064.72;6088223;23;20672;-70
2023/01/31 02:03:02;;;;;;;16.23;3.80;;;;;;;5.21;79.27;102054.31;6088992;23;20042;-71
2023/01/31 02:05:33;;;;;;;15.75;3.30;;;;;;;5.17;79.09;102062.72;6086870;23;20018;-70
2023/01/31 02:08:01;;;;;;;19.27;4.55;;;;;;;5.17;79.05;102051.59;6088451;23;20512;-71
2023/01/31 02:10:33;;;;;;;17.65;3.88;;;;;;;5.16;79.24;102055.00;6089485;23;20021;-71
2023/01/31 02:13:00;;;;;;;11.93;3.70;;;;;;;5.15;78.63;102048.09;6090380;23;20028;-70
2023/01/31 02:15:25;;;;;;;16.20;3.42;;;;;;;5.12;79.03;102060.81;6088564;23;20101;-71
2023/01/31 02:17:52;;;;;;;14.90;3.75;;;;;;;5.08;79.32;102056.41;6088535;23;20122;-70
2023/01/31 02:20:29;;;;;;;14.68;3.47;;;;;;;5.08;79.67;102059.84;6087721;23;20383;-71
2023/01/31 02:23:13;;;;;;;14.27;3.70;;;;;;;5.08;78.91;102057.28;6089513;23;20025;-71
2023/01/31 02:26:06;;;;;;;22.52;3.72;;;;;;;5.07;78.96;102054.69;6089538;23;20026;-71
2023/01/31 02:28:34;;;;;;;14.25;2.95;;;;;;;5.05;78.92;102052.03;6089461;23;20020;-69
2023/01/31 02:30:59;;;;;;;17.25;3.58;;;;;;;5.07;78.97;102054.69;6090416;23;19995;-70
2023/01/31 02:33:39;;;;;;;17.85;3.20;;;;;;;5.06;78.63;102055.47;6089020;23;20090;-70
2023/01/31 02:36:43;;;;;;;18.88;3.72;;;;;;;5.04;78.65;102047.72;6090076;23;20014;-71
2023/01/31 02:39:25;;;;;;;16.52;3.03;;;;;;;5.01;79.10;102047.63;6089915;23;20024;-70
2023/01/31 02:41:59;;;;;;;13.07;2.95;;;;;;;4.94;79.05;102044.81;6089997;23;20019;-70
2023/01/31 02:44:58;;;;;;;15.63;3.28;;;;;;;4.87;79.12;102038.59;6089753;23;20022;-70
2023/01/31 02:47:26;;;;;;;19.05;3.58;;;;;;;4.82;79.87;102036.69;6089136;23;20430;-70
2023/01/31 02:50:08;;;;;;;14.88;2.60;;;;;;;4.77;79.34;102049.34;6089316;23;20041;-70
2023/01/31 02:52:54;;;;;;;10.52;3.28;;;;;;;4.74;80.25;102043.25;6089867;23;20018;-70
2023/01/31 02:58:16;;;;;;;18.73;3.10;;;;;;;4.57;80.01;102053.75;6086825;23;20020;-71
2023/01/31 03:00:44;;;;;;;22.02;4.32;;;;;;;4.55;80.57;102059.63;6088866;23;20069;-70
2023/01/31 03:03:27;;;;;;;18.83;4.03;;;;;;;4.53;80.32;102057.03;6089860;23;20078;-70
2023/01/31 03:06:34;;;;;;;12.10;2.92;;;;;;;4.49;80.36;102074.75;6089664;23;20085;-69
2023/01/31 03:09:24;;;;;;;15.32;3.83;;;;;;;4.42;80.79;102071.09;6087568;23;20093;-70
2023/01/31 03:12:08;;;;;;;15.88;2.70;;;;;;;4.40;81.24;102070.19;6089348;23;20093;-69
2023/01/31 03:14:51;;;;;;;15.63;3.17;;;;;;;4.35;80.75;102070.81;6088156;23;20019;-70
2023/01/31 03:17:32;;;;;;;19.85;3.25;;;;;;;4.27;81.14;102069.69;6088149;23;20034;-70
2023/01/31 03:20:09;;;;;;;13.82;3.20;;;;;;;4.21;81.95;102062.59;6088759;23;20030;-70
2023/01/31 03:22:43;;;;;;;17.25;3.00;;;;;;;4.12;82.20;102058.84;6087903;23;20010;-70
2023/01/31 03:25:12;;;;;;;8.98;2.78;;;;;;;4.03;82.42;102069.63;6089290;23;20172;-69
2023/01/31 03:27:42;;;;;;;16.17;3.45;;;;;;;3.93;82.42;102072.63;6089317;23;20018;-70
2023/01/31 03:30:15;;;;;;;15.70;2.97;;;;;;;3.85;82.48;102069.78;6089416;23;20022;-70
2023/01/31 03:32:47;;;;;;;18.17;2.95;;;;;;;3.81;83.25;102064.47;6088972;23;20507;-70
2023/01/31 03:35:13;;;;;;;10.52;2.53;;;;;;;3.80;83.69;102073.81;6088087;23;20019;-69
2023/01/31 03:37:47;;;;;;;13.40;3.40;;;;;;;3.83;82.81;102061.13;6090459;23;20014;-70
2023/01/31 03:40:20;;;;;;;17.23;2.92;;;;;;;3.85;83.05;102049.31;6089343;23;20010;-71
2023/01/31 03:42:45;;;;;;;11.68;2.78;;;;;;;3.80;82.81;102055.91;6090410;23;20002;-70
2023/01/31 03:45:37;;;;;;;12.18;2.58;;;;;;;3.71;83.73;102050.44;6089731;23;20074;-70
2023/01/31 03:48:09;;;;;;;8.40;2.85;;;;;;;3.59;83.36;102054.19;6075614;23;20414;-70
2023/01/31 03:50:42;;;;;;;14.25;2.92;;;;;;;3.51;84.20;102051.31;6087692;23;20520;-69
2023/01/31 03:53:17;;;;;;;11.80;2.90;;;;;;;3.45;84.37;102062.16;6088339;23;20093;-70
2023/01/31 03:55:45;;;;;;;;;;;;;;;3.42;84.65;102059.50;6089853;23;20011;-70
2023/01/31 03:58:12;;;;;;;10.52;3.03;;;;;;;3.42;84.26;102056.94;6089283;23;19905;-70
2023/01/31 04:00:41;;;;;;;10.02;2.92;;;;;;;3.40;84.25;102056.00;6089358;23;20018;-69
2023/01/31 04:03:22;;;;;;;15.02;2.80;;;;;;;3.34;84.95;102052.31;6090874;23;20149;-70
2023/01/31 04:05:48;;;;;;;16.88;3.22;;;;;;;3.27;84.85;102055.41;6091964;23;20042;-69
2023/01/31 04:08:14;;;;;;;16.33;3.22;;;;;;;3.19;85.54;102055.13;6090940;23;20077;-69
2023/01/31 04:10:39;;;;;;;11.77;2.55;;;;;;;3.14;85.90;102051.47;6090748;23;20093;-70
2023/01/31 04:13:05;;;;;;;11.00;3.05;;;;;;;3.11;85.51;102051.34;6090845;23;20008;-70
2023/01/31 04:15:30;;;;;;;16.15;2.35;;;;;;;3.06;86.13;102045.19;6089940;23;20667;-70
2023/01/31 04:17:56;;;;;;;11.13;2.90;;;;;;;3.03;86.65;102034.84;6088786;23;20030;-70
2023/01/31 04:20:21;;;;;;;12.00;2.80;;;;;;;2.99;86.57;102041.50;6087533;23;20563;-69
2023/01/31 04:22:47;;;;;;;14.38;3.22;;;;;;;2.95;85.89;102037.06;6087756;23;20105;-69
2023/01/31 04:25:12;;;;;;;10.70;2.70;;;;;;;2.93;86.05;102043.78;6088228;23;20074;-70
2023/01/31 04:27:38;;;;;;;11.07;2.97;;;;;;;2.92;86.42;102034.41;6089548;23;20014;-69
2023/01/31 04:30:04;;;;;;;11.70;2.88;;;;;;;2.90;86.48;102036.00;6088016;23;20030;-69
2023/01/31 04:32:30;;;;;;;18.23;3.60;;;;;;;2.91;87.04;102029.19;6090345;23;20038;-69
2023/01/31 04:34:55;;;;;;;12.20;2.70;;;;;;;2.90;86.65;102032.59;6089454;23;20022;-69
2023/01/31 04:37:21;;;;;;;17.77;4.28;;;;;;;2.88;86.77;102035.06;6091327;23;20014;-70
2023/01/31 04:39:46;;;;;;;17.48;3.60;;;;;;;2.89;86.68;102030.84;6090059;23;20105;-70
2023/01/31 04:42:11;;;;;;;14.98;3.45;;;;;;;2.87;87.46;102029.91;6089146;23;20025;-70
2023/01/31 04:44:37;;;;;;;13.43;3.97;;;;;;;2.83;87.14;102028.91;6090792;23;20049;-70
2023/01/31 04:47:02;;;;;;;14.07;3.20;;;;;;;2.79;87.46;102018.47;6090122;23;20056;-71
2023/01/31 04:49:28;;;;;;;11.75;3.42;;;;;;;2.75;87.61;102014.94;6090810;23;20610;-71
2023/01/31 04:51:53;;;;;;;17.90;4.00;;;;;;;2.75;87.97;102011.50;6061984;23;20023;-69
2023/01/31 04:54:19;;;;;;;23.45;5.30;;;;;;;2.74;87.74;102010.63;6036395;23;20023;-70
2023/01/31 04:56:44;;;;;;;21.08;4.47;;;;;;;2.73;88.37;102010.53;6061994;23;20501;-71
2023/01/31 04:59:09;;;;;;;19.70;6.65;;;;;;;2.73;88.14;102008.88;6083722;23;20346;-71
2023/01/31 05:01:35;;;;;;;21.92;4.72;;;;;;;2.75;88.42;102004.72;6062720;23;20018;-73
2023/01/31 05:04:00;;;;;;;18.35;4.80;;;;;;;2.76;88.35;101998.78;6062016;23;20014;-70
2023/01/31 05:06:26;;;;;;;13.90;5.07;;;;;;;2.75;89.02;102003.84;6061426;23;20459;-70
2023/01/31 05:08:53;;;;;;;22.30;4.88;;;;;;;2.76;88.87;102006.44;6061961;23;20041;-69
2023/01/31 05:11:18;;;;;;;19.27;4.93;;;;;;;2.79;88.55;102000.59;6062800;23;20015;-69
2023/01/31 05:13:44;;;;;;;16.38;4.38;;;;;;;2.74;88.69;102002.09;6084381;23;20025;-69
2023/01/31 05:16:10;;;;;;;19.13;4.88;;;;;;;2.72;88.54;102003.72;6061703;23;20136;-70
2023/01/31 05:18:37;;;;;;;16.55;4.78;;;;;;;2.71;89.23;102005.38;6059767;23;20022;-70
2023/01/31 05:21:04;;;;;;;10.50;3.92;;;;;;;2.67;88.94;102000.06;6059982;23;20034;-70
2023/01/31 05:23:30;;;;;;;19.48;4.80;;;;;;;2.66;89.33;102004.34;6059385;23;20030;-69
2023/01/31 05:25:55;;;;;;;18.70;4.90;;;;;;;2.62;89.30;101999.88;6060403;23;20019;-70
2023/01/31 05:28:21;;;;;;;14.55;4.32;;;;;;;2.60;89.54;101993.84;6061594;23;20010;-70
2023/01/31 05:30:46;;;;;;;11.52;4.32;;;;;;;2.58;89.08;101994.59;6035856;23;20018;-70
2023/01/31 05:33:12;;;;;;;15.45;5.32;;;;;;;2.57;89.40;101985.19;6061031;23;20018;-70
2023/01/31 05:35:40;;;;;;;19.50;5.32;;;;;;;2.58;89.67;101994.59;6061043;23;20019;-70
2023/01/31 05:38:06;;;;;;;20.20;5.70;;;;;;;2.59;89.79;101992.09;6061632;23;20018;-70
2023/01/31 05:40:31;;;;;;;15.70;4.78;;;;;;;2.63;89.57;101994.00;6060949;23;20071;-70
2023/01/31 05:43:01;;;;;;;18.45;5.75;;;;;;;2.69;90.07;101986.59;6061825;23;20006;-70
2023/01/31 05:45:27;;;;;;;17.63;5.72;;;;;;;2.78;89.48;101997.19;6060236;23;20015;-69
2023/01/31 05:47:53;;;;;;;20.42;5.63;;;;;;;2.82;89.60;102004.16;6059325;23;20336;-70
2023/01/31 05:50:19;;;;;;;22.08;6.60;;;;;;;2.92;89.39;102005.44;6058987;23;20026;-70
2023/01/31 05:52:58;;;;;;;14.80;4.75;;;;;;;3.07;89.33;101998.41;6034179;23;20015;-70
2023/01/31 05:55:24;;;;;;;21.23;6.55;;;;;;;3.16;88.87;102001.34;6060803;23;20446;-70
2023/01/31 05:57:52;;;;;;;14.95;6.32;;;;;;;3.26;88.47;102002.59;6060584;23;20366;-70
2023/01/31 06:00:18;;;;;;;15.57;5.88;;;;;;;3.29;87.71;102003.56;6062044;23;20019;-70
2023/01/31 06:02:43;;;;;;;27.63;6.60;;;;;;;3.36;87.77;102004.69;6062505;23;20030;-70
2023/01/31 06:05:09;;;;;;;18.60;6.40;;;;;;;3.41;87.75;102001.50;6061818;23;20463;-70
2023/01/31 06:07:35;;;;;;;23.55;6.25;;;;;;;3.46;87.59;102000.03;6062185;23;20137;-70
2023/01/31 06:10:00;;;;;;;16.08;5.78;;;;;;;3.53;86.61;102001.13;6037529;23;20029;-70
2023/01/31 06:12:27;;;;;;;21.35;6.25;;;;;;;3.56;87.27;101990.16;6061415;23;20018;-70
2023/01/31 06:14:53;;;;;;;22.75;6.45;;;;;;;3.58;87.03;101989.41;6061448;23;20541;-70
2023/01/31 06:17:18;;;;;;;17.77;5.63;;;;;;;3.60;86.43;101992.00;6084558;23;20030;-70
2023/01/31 06:19:44;;;;;;;20.63;5.82;;;;;;;3.57;86.45;101995.31;6061138;23;20026;-70
2023/01/31 06:22:09;;;;;;;26.08;6.38;;;;;;;3.51;87.19;101987.41;6064648;23;20007;-71
2023/01/31 06:24:35;;;;;;;20.98;6.38;;;;;;;3.47;87.04;101993.22;6085528;23;20538;-70
2023/01/31 06:27:00;;;;;;;20.00;6.53;;;;;;;3.42;87.32;101992.16;6063499;23;20481;-71
2023/01/31 06:29:25;;;;;;;20.40;6.45;;;;;;;3.37;87.27;101984.34;6062320;23;20041;-71
2023/01/31 06:31:52;;;;;;;22.00;6.22;;;;;;;3.34;87.38;101981.66;6061100;23;20014;-70
2023/01/31 06:34:18;;;;;;;14.85;5.88;;;;;;;3.30;87.53;101984.00;6084271;23;20011;-71
2023/01/31 06:36:44;;;;;;;17.38;6.57;;;;;;;3.28;87.93;101976.28;6061022;23;20118;-70
2023/01/31 06:39:11;;;;;;;23.65;6.55;;;;;;;3.31;87.45;101980.66;6083808;23;20049;-71
2023/01/31 06:41:36;;;;;;;15.63;7.25;;;;;;;3.36;88.02;101969.78;6062159;23;20019;-70
2023/01/31 06:44:01;;;;;;;19.13;5.10;;;;;;;3.41;87.43;101962.28;6084620;23;20030;-70
2023/01/31 06:46:27;;;;;;;18.25;6.07;;;;;;;3.47;87.05;101955.75;6061120;23;20062;-70
2023/01/31 06:48:52;;;;;;;21.85;6.65;;;;;;;3.51;87.27;101956.75;6060292;23;20062;-70
2023/01/31 06:51:18;;;;;;;17.00;6.15;;;;;;;3.55;86.88;101958.63;6059171;23;20022;-71
2023/01/31 06:53:43;;;;;;;22.60;6.18;;;;;;;3.59;86.63;101949.41;6059927;23;20035;-69
2023/01/31 06:56:09;;;;;;;11.63;5.05;;;;;;;3.62;86.32;101955.47;6060702;23;20023;-69
2023/01/31 06:58:34;;;;;;;13.25;5.45;;;;;;;3.67;86.58;101956.53;6061076;23;20015;-70
2023/01/31 07:01:07;;;;;;;17.48;6.05;;;;;;;3.71;85.72;101957.50;6060748;23;20011;-70
2023/01/31 07:03:32;;;;;;;23.27;5.47;;;;;;;3.78;86.09;101972.28;6061319;23;20011;-70
2023/01/31 07:05:58;;;;;;;12.52;4.97;;;;;;;3.82;86.08;101971.59;6061561;23;20026;-70
2023/01/31 07:08:23;;;;;;;15.85;5.50;;;;;;;3.84;85.78;101968.28;6061286;23;20023;-70
2023/01/31 07:10:48;;;;;;;14.75;5.70;;;;;;;3.92;85.12;101974.53;6084309;23;20094;-70
2023/01/31 07:13:14;;;;;;;17.33;5.18;;;;;;;3.99;84.67;101976.53;6060624;23;20038;-71
2023/01/31 07:15:40;;;;;;;18.48;4.82;;;;;;;4.06;84.66;101982.75;6061094;23;20482;-71
2023/01/31 07:18:06;;;;;;;14.88;5.20;;;;;;;4.12;84.74;101980.41;6062138;23;20086;-70
2023/01/31 07:20:31;;;;;;;19.27;5.90;;;;;;;4.18;85.04;101975.50;6059142;23;20638;-70
2023/01/31 07:22:57;;;;;;;18.48;5.68;;;;;;;4.23;84.18;101973.13;6061311;23;20027;-70
2023/01/31 07:25:24;;;;;;;18.30;5.68;;;;;;;4.24;84.44;101973.16;6063360;23;20095;-70
2023/01/31 07:27:50;;;;;;;19.42;5.60;;;;;;;4.26;83.36;101973.22;6062592;23;20467;-70
2023/01/31 07:30:16;;;;;;;21.17;6.57;;;;;;;4.30;83.18;101982.78;6062271;23;20026;-70
2023/01/31 07:32:41;;;;;;;16.52;4.85;;;;;;;4.34;83.46;101976.94;6063881;23;20022;-70
2023/01/31 07:35:07;;;;;;;14.07;5.57;;;;;;;4.36;83.54;101968.47;6062926;23;20022;-69
2023/01/31 07:37:33;;;;;;;13.88;5.28;;;;;;;4.42;83.40;101980.63;6063633;23;20014;-69
2023/01/31 07:39:58;;;;;;;17.42;5.60;;;;;;;4.45;83.52;101981.63;6063376;23;20007;-69
2023/01/31 07:42:23;;;;;;;22.17;5.50;;;;;;;4.51;82.94;101988.63;6085778;23;20019;-70
2023/01/31 07:44:49;;;;;;;21.75;6.03;;;;;;;4.54;82.54;101981.06;6063111;23;20074;-69
2023/01/31 07:47:14;;;;;;;14.98;5.05;;;;;;;4.60;82.46;101983.84;6061254;23;20066;-69
2023/01/31 07:49:40;;;;;;;15.25;5.22;;;;;;;4.66;81.74;101989.19;6082758;23;20050;-70
2023/01/31 07:52:05;;;;;;;15.00;5.20;;;;;;;4.72;81.33;101979.16;6060457;23;20091;-69
2023/01/31 07:54:30;;;;;;;17.17;7.05;;;;;;;4.79;81.86;101980.22;6060435;23;20019;-69
2023/01/31 07:56:56;;;;;;;13.32;5.60;;;;;;;4.84;81.68;101964.19;6060640;23;20046;-70
2023/01/31 07:59:21;;;;;;;21.00;5.68;;;;;;;4.89;81.36;101961.81;6060736;23;20046;-69
2023/01/31 08:04:32;;;;;;;19.80;6.55;;;;;;;4.98;81.46;101941.63;6064000;23;20402;-71
2023/01/31 08:07:00;;;;;;;13.02;4.95;;;;;;;5.04;80.91;101936.69;6039719;23;20729;-71
2023/01/31 08:09:25;;;;;;;15.05;4.38;;;;;;;5.11;80.60;101936.06;6065368;23;20062;-70
2023/01/31 08:11:51;;;;;;;15.85;4.75;;;;;;;5.15;80.22;101920.84;6065192;23;20525;-71
2023/01/31 08:14:19;;;;;;;15.15;3.97;;;;;;;5.25;79.19;101911.72;6063102;23;20022;-71
2023/01/31 08:16:45;;;;;;;19.33;4.15;;;;;;;5.35;78.54;101908.63;6064808;23;20022;-71
2023/01/31 08:19:10;;;;;;;16.80;4.10;;;;;;;5.44;78.64;101908.03;6065094;23;20439;-71
2023/01/31 08:21:35;;;;;;;15.13;3.80;;;;;;;5.51;77.69;101904.84;6063535;23;20196;-71
2023/01/31 08:24:01;;;;;;;14.10;4.13;;;;;;;5.58;77.97;101915.34;6066208;23;20023;-70
2023/01/31 08:26:26;;;;;;;15.50;3.30;;;;;;;5.65;76.89;101924.97;6065648;23;20022;-70
2023/01/31 08:28:55;;;;;;;14.85;3.53;;;;;;;5.74;76.19;101921.78;6066067;23;20023;-70
2023/01/31 08:31:24;;;;;;;9.23;2.95;;;;;;;5.81;76.61;101922.84;6066853;23;20070;-73
2023/01/31 08:33:51;;;;;;;11.70;3.30;;;;;;;5.87;75.80;101920.47;6064984;23;20022;-73
2023/01/31 08:36:30;;;;;;;13.80;4.00;;;;;;;5.93;76.05;101925.78;6066409;23;20153;-73
2023/01/31 08:38:56;;;;;;;10.85;3.22;;;;;;;5.98;76.01;101922.50;6064470;23;20019;-73
2023/01/31 08:41:25;;;;;;;13.85;3.17;;;;;;;5.99;75.58;101913.97;6065385;23;20060;-73
2023/01/31 08:43:51;;;;;;;15.00;3.28;;;;;;;6.01;75.51;101912.34;6065478;23;20044;-73
2023/01/31 08:46:17;;;;;;;10.40;3.47;;;;;;;6.08;75.96;101909.09;6087280;23;20010;-73
2023/01/31 08:48:43;;;;;;;11.20;3.28;;;;;;;6.13;75.19;101896.41;6063698;23;20082;-73
2023/01/31 08:51:11;;;;;;;14.52;3.35;;;;;;;6.18;74.92;101902.53;6063487;23;20082;-74
2023/01/31 08:53:43;;;;;;;12.30;2.90;;;;;;;6.23;74.59;101895.81;6063828;23;20018;-73
2023/01/31 08:56:09;;;;;;;12.95;3.10;;;;;;;6.26;74.55;101886.50;6063558;23;20458;-73
2023/01/31 08:58:37;;;;;;;17.05;3.70;;;;;;;6.31;74.39;101894.34;6064691;23;20089;-73
2023/01/31 09:01:06;;;;;;;15.88;3.35;;;;;;;6.37;74.08;101901.34;6064370;23;20487;-74
2023/01/31 09:03:31;;;;;;;15.77;3.00;;;;;;;6.42;74.17;101898.06;6064587;23;20011;-74
2023/01/31 09:06:01;;;;;;;13.52;3.45;;;;;;;6.49;73.73;101892.25;6039091;23;20030;-74
2023/01/31 09:08:28;;;;;;;13.55;3.05;;;;;;;6.56;73.48;101890.69;6061517;23;20070;-74
2023/01/31 09:10:55;;;;;;;19.77;3.55;;;;;;;6.62;73.50;101899.44;6065091;23;20041;-73
2023/01/31 09:13:21;;;;;;;13.57;3.20;;;;;;;6.67;73.38;101899.56;6064945;23;20018;-74
2023/01/31 09:15:57;;;;;;;15.25;3.53;;;;;;;6.73;72.99;101890.28;6063737;23;20043;-73
2023/01/31 09:18:22;;;;;;;12.00;2.50;;;;;;;6.83;72.68;101873.41;6063123;23;20014;-73
2023/01/31 09:20:47;;;;;;;15.48;3.55;;;;;;;6.90;72.90;101881.31;6062837;23;20019;-73
2023/01/31 09:23:13;;;;;;;13.45;3.20;;;;;;;6.96;72.43;101878.03;6063122;23;20019;-74
2023/01/31 09:25:38;;;;;;;12.35;3.03;;;;;;;6.96;72.28;101872.00;6063984;23;20019;-74
2023/01/31 09:28:04;;;;;;;10.30;3.03;;;;;;;6.94;72.67;101879.69;6063900;23;20011;-73
2023/01/31 09:30:29;;;;;;;12.98;3.13;;;;;;;6.91;72.61;101882.19;6063689;23;20019;-74
2023/01/31 09:32:54;;;;;;;13.30;2.40;;;;;;;6.89;72.99;101889.84;6063848;23;20019;-73
2023/01/31 09:35:20;;;;;;;14.77;2.75;;;;;;;6.82;72.82;101872.53;6038572;23;20074;-73
2023/01/31 09:37:46;;;;;;;14.75;3.95;;;;;;;6.80;72.97;101871.63;6064133;23;20066;-73
2023/01/31 09:40:21;;;;;;;18.88;4.00;;;;;;;6.81;73.69;101868.25;6065038;23;20019;-74
2023/01/31 09:42:48;;;;;;;12.82;3.17;;;;;;;6.85;73.53;101864.06;6093362;23;20054;-74
2023/01/31 09:45:30;;;;;;;13.88;3.17;;;;;;;6.87;73.50;101867.53;6094117;23;20022;-73
2023/01/31 09:47:58;;;;;;;15.38;3.20;;;;;;;6.89;73.68;101859.00;6092917;23;20101;-73
2023/01/31 09:50:31;;;;;;;17.77;4.25;;;;;;;6.90;73.77;101862.44;6093515;23;20030;-73
2023/01/31 09:52:57;;;;;;;30.00;4.88;;;;;;;6.92;73.94;101865.91;6090998;23;20054;-73
2023/01/31 09:55:54;;;;;;;17.20;3.55;;;;;;;6.92;74.53;101865.91;6092625;23;20066;-73
2023/01/31 09:58:30;;;;;;;14.32;3.25;;;;;;;6.94;75.04;101873.69;6093173;23;20006;-73
2023/01/31 10:01:08;;;;;;;13.25;3.53;;;;;;;6.99;75.01;101877.22;6094920;23;20018;-73
2023/01/31 10:03:45;;;;;;;13.23;3.10;;;;;;;7.00;74.75;101872.09;6093890;23;20029;-73
2023/01/31 10:06:20;;;;;;;11.40;2.55;;;;;;;7.08;74.78;101868.03;6092215;23;20032;-73
2023/01/31 10:08:57;;;;;;;16.80;4.07;;;;;;;7.13;74.47;101851.00;6067358;23;20350;-73
2023/01/31 10:11:42;;;;;;;11.43;3.35;;;;;;;7.18;74.06;101841.72;6093167;23;20065;-73
2023/01/31 10:14:10;;;;;;;14.10;3.60;;;;;;;7.24;73.81;101831.56;6094575;23;20022;-73
2023/01/31 10:16:53;;;;;;;13.65;3.00;;;;;;;7.35;73.00;101819.84;6095077;23;20021;-73
2023/01/31 10:19:29;;;;;;;15.85;2.95;;;;;;;7.45;73.54;101834.59;6093853;23;20009;-72
2023/01/31 10:22:04;;;;;;;13.07;4.22;;;;;;;7.52;72.37;101822.75;6093333;23;20506;-73
2023/01/31 10:24:38;;;;;;;;;;;;;;;7.56;72.67;101818.53;6095719;23;20028;-72
2023/01/31 10:27:30;;;;;;;19.63;3.40;;;;;;;7.64;71.78;101794.69;6094910;23;19920;-73
2023/01/31 10:29:58;;;;;;;13.82;3.38;;;;;;;7.73;71.70;101779.44;6089954;23;20493;-73
2023/01/31 10:32:30;;;;;;;16.60;3.65;;;;;;;7.76;70.67;101779.50;6093900;23;20029;-72
2023/01/31 10:35:01;;;;;;;17.10;2.75;;;;;;;7.79;70.98;101784.72;6095796;23;20162;-73
2023/01/31 10:37:38;;;;;;;13.75;3.13;;;;;;;7.89;71.24;101785.75;6093659;23;20011;-72
2023/01/31 10:40:20;;;;;;;10.63;2.55;;;;;;;7.96;70.49;101783.31;6093918;23;20010;-73
2023/01/31 10:42:54;;;;;;;18.15;3.78;;;;;;;8.06;70.36;101768.91;6091783;23;20022;-73
2023/01/31 10:45:29;;;;;;;14.60;4.05;;;;;;;8.22;70.98;101777.78;6092627;23;20018;-72
2023/01/31 10:48:06;;;;;;;10.60;2.80;;;;;;;8.26;70.38;101758.94;6092865;23;20026;-73
2023/01/31 10:50:44;;;;;;;12.07;3.35;;;;;;;8.25;70.13;101752.06;6091922;23;20022;-72
2023/01/31 10:53:43;;;;;;;14.63;3.58;;;;;;;8.23;70.56;101758.88;6090691;23;20033;-73
2023/01/31 10:56:09;;;;;;;11.00;3.03;;;;;;;8.25;71.40;101770.09;6092033;23;20109;-72
2023/01/31 10:58:35;;;;;;;14.88;3.08;;;;;;;8.15;72.87;101779.38;6091416;23;20421;-72
2023/01/31 11:01:07;;;;;;;15.05;3.30;;;;;;;8.09;74.20;101778.38;6091376;23;20020;-73
2023/01/31 11:03:33;;;;;;;11.80;2.20;;;;;;;8.00;73.71;101789.38;6090902;23;20117;-73
2023/01/31 11:05:58;;;;;;;20.30;4.57;;;;;;;7.90;73.41;101777.16;6091042;23;20090;-73
2023/01/31 11:08:24;;;;;;;13.40;3.55;;;;;;;7.85;74.55;101779.69;6091221;23;20022;-73
2023/01/31 11:10:52;;;;;;;12.82;3.20;;;;;;;7.85;74.87;101763.34;6091698;23;20018;-73
2023/01/31 11:13:19;;;;;;;12.75;3.72;;;;;;;7.86;74.53;101765.09;6089762;23;20137;-72
2023/01/31 11:15:47;;;;;;;17.70;3.83;;;;;;;7.87;74.39;101759.97;6091947;23;20029;-73
2023/01/31 11:18:45;;;;;;;14.50;3.47;;;;;;;7.88;74.43;101745.41;6090922;23;20022;-73
2023/01/31 11:21:20;;;;;;;16.17;3.28;;;;;;;7.95;75.23;101748.09;6089584;23;20032;-73
2023/01/31 11:23:45;;;;;;;15.75;3.08;;;;;;;7.87;75.86;101743.66;6091059;23;20019;-73
2023/01/31 11:26:14;;;;;;;21.77;3.72;;;;;;;7.84;76.03;101736.75;6093777;23;20030;-73
2023/01/31 11:28:40;;;;;;;10.80;3.08;;;;;;;7.90;76.51;101724.00;6091665;23;20019;-73
2023/01/31 11:31:16;;;;;;;15.48;3.42;;;;;;;7.96;76.08;101720.66;6092104;23;20608;-73
2023/01/31 11:33:46;;;;;;;16.02;2.90;;;;;;;8.01;75.88;101708.75;6092635;23;20018;-73
2023/01/31 11:36:21;;;;;;;10.40;3.10;;;;;;;8.06;74.83;101695.94;6091865;23;20023;-73
2023/01/31 11:38:50;;;;;;;8.80;2.58;;;;;;;8.07;74.21;101692.53;6090820;23;20050;-73
2023/01/31 11:41:32;;;;;;;14.05;3.00;;;;;;;8.10;74.82;101698.56;6092071;23;20097;-72
2023/01/31 11:44:18;;;;;;;11.18;3.67;;;;;;;8.09;73.95;101683.97;6093423;23;20010;-73